Time;durP1;ratioP1;P1;durP2;ratioP2;P2;SDS_P1;SDS_P2;PMS_P1;PMS_P2;Temp;Humidity;BMP_temperature;BMP_pressure;BME280_temperature;BME280_humidity;BME280_pressure;Samples;Min_cycle;Max_cycle;Signal;HPM_P1;HPM_P2
2022/06/18 00:01:36;;;;;;;8.75;4.53;;;19.00;99.90;;;;;;5032929;28;20045;-80
2022/06/18 00:04:09;;;;;;;9.07;4.50;;;18.90;99.90;;;;;;5033945;28;20196;-81
2022/06/18 00:06:57;;;;;;;8.98;4.88;;;19.00;99.90;;;;;;5036942;28;20056;-80
2022/06/18 00:09:27;;;;;;;11.95;4.13;;;19.00;99.90;;;;;;5020182;28;20133;-80
2022/06/18 00:14:43;;;;;;;7.90;4.22;;;18.90;99.90;;;;;;5034745;28;20045;-80
2022/06/18 00:17:13;;;;;;;7.70;4.30;;;18.80;99.90;;;;;;5019057;28;20049;-81
2022/06/18 00:19:39;;;;;;;7.72;4.45;;;18.80;99.90;;;;;;5022350;28;20140;-80
2022/06/18 00:22:05;;;;;;;11.07;4.47;;;18.80;99.90;;;;;;5043644;28;20223;-81
2022/06/18 00:24:30;;;;;;;9.00;3.95;;;18.80;99.90;;;;;;5058953;28;20166;-81
2022/06/18 00:26:56;;;;;;;7.60;4.40;;;18.80;99.90;;;;;;5046776;28;20049;-80
2022/06/18 00:29:22;;;;;;;7.13;4.28;;;18.80;99.90;;;;;;5027504;28;20041;-81
2022/06/18 00:31:47;;;;;;;8.27;4.00;;;18.80;99.90;;;;;;5041973;28;20940;-80
2022/06/18 00:34:13;;;;;;;8.88;4.43;;;18.90;99.90;;;;;;5034626;28;20042;-80
2022/06/18 00:36:41;;;;;;;8.10;4.15;;;18.80;99.90;;;;;;5059656;28;20040;-80
2022/06/18 00:39:11;;;;;;;6.28;4.35;;;18.80;99.90;;;;;;5039860;28;20045;-81
2022/06/18 00:41:40;;;;;;;8.50;4.25;;;18.80;99.90;;;;;;5021654;28;20115;-80
2022/06/18 00:44:39;;;;;;;7.45;3.95;;;18.80;99.90;;;;;;5032539;28;20045;-80
2022/06/18 00:47:24;;;;;;;7.20;4.55;;;18.80;99.90;;;;;;5038924;28;20058;-81
2022/06/18 00:50:16;;;;;;;;;;;18.80;99.90;;;;;;5033182;28;20121;-81
2022/06/18 00:53:07;;;;;;;7.82;4.60;;;18.80;99.90;;;;;;5031962;28;19959;-80
2022/06/18 00:55:52;;;;;;;5.97;4.10;;;18.70;99.90;;;;;;5050004;28;20838;-82
2022/06/18 00:58:29;;;;;;;13.43;4.65;;;18.70;99.90;;;;;;5056704;28;20095;-81
2022/06/18 01:00:57;;;;;;;7.93;4.30;;;18.70;99.90;;;;;;5050366;28;20056;-81
2022/06/18 01:03:26;;;;;;;6.78;4.40;;;18.70;99.90;;;;;;5063552;28;20040;-81
2022/06/18 01:05:54;;;;;;;8.65;4.20;;;18.70;99.90;;;;;;5062423;28;20044;-81
2022/06/18 01:08:22;;;;;;;9.25;4.10;;;18.70;99.90;;;;;;5060280;28;20064;-80
2022/06/18 01:10:52;;;;;;;8.93;4.40;;;18.70;99.90;;;;;;5047767;28;20052;-82
2022/06/18 01:13:21;;;;;;;10.40;4.45;;;18.70;99.90;;;;;;5052821;28;20556;-81
2022/06/18 01:15:48;;;;;;;5.93;3.85;;;18.70;99.90;;;;;;5045452;28;20049;-81
2022/06/18 01:18:15;;;;;;;8.70;4.40;;;18.70;99.90;;;;;;5047624;28;20155;-80
2022/06/18 01:20:58;;;;;;;6.93;4.40;;;18.70;99.90;;;;;;5036683;28;20091;-81
2022/06/18 01:23:35;;;;;;;6.47;4.07;;;18.70;99.90;;;;;;5043563;28;20070;-82
2022/06/18 01:26:01;;;;;;;7.03;4.53;;;18.60;99.90;;;;;;5046841;28;20084;-81
2022/06/18 01:28:28;;;;;;;7.63;4.90;;;18.60;99.90;;;;;;5046118;28;20041;-81
2022/06/18 01:30:56;;;;;;;9.32;5.60;;;18.60;99.90;;;;;;5040260;28;20053;-81
2022/06/18 01:33:22;;;;;;;7.28;4.28;;;18.60;99.90;;;;;;5045907;28;20467;-81
2022/06/18 01:35:52;;;;;;;7.82;4.75;;;18.60;99.90;;;;;;5047011;28;20121;-81
2022/06/18 01:38:19;;;;;;;7.78;4.60;;;18.60;99.90;;;;;;5044997;28;20704;-80
2022/06/18 01:40:50;;;;;;;6.93;4.60;;;18.50;99.90;;;;;;5025983;28;20127;-81
2022/06/18 01:43:19;;;;;;;6.93;4.22;;;18.50;99.90;;;;;;5037558;28;20160;-80
2022/06/18 01:45:51;;;;;;;7.18;4.60;;;18.40;99.90;;;;;;5052443;28;20053;-81
2022/06/18 01:48:25;;;;;;;9.18;4.57;;;18.40;99.90;;;;;;5048402;28;20053;-81
2022/06/18 01:51:14;;;;;;;8.65;5.00;;;18.50;99.90;;;;;;5033143;28;20065;-80
2022/06/18 01:53:48;;;;;;;11.68;5.55;;;18.50;99.90;;;;;;5045118;28;20041;-80
2022/06/18 01:56:19;;;;;;;9.23;5.35;;;18.40;99.90;;;;;;5040995;28;20057;-80
2022/06/18 01:58:53;;;;;;;9.60;4.75;;;18.50;99.90;;;;;;5065421;28;20104;-81
2022/06/18 02:01:26;;;;;;;8.73;4.95;;;18.40;99.90;;;;;;5057125;28;20102;-81
2022/06/18 02:03:54;;;;;;;10.32;5.25;;;18.50;99.90;;;;;;5050996;28;20041;-81
2022/06/18 02:06:21;;;;;;;9.90;5.53;;;18.50;99.90;;;;;;5035706;28;20055;-81
2022/06/18 02:08:48;;;;;;;9.60;5.40;;;18.50;99.90;;;;;;5058962;28;20051;-81
2022/06/18 02:11:16;;;;;;;12.07;5.97;;;18.50;99.90;;;;;;5058634;28;20569;-82
2022/06/18 02:13:52;;;;;;;12.23;6.07;;;18.40;99.90;;;;;;5042500;28;20047;-81
2022/06/18 02:16:24;;;;;;;10.32;5.68;;;18.40;99.90;;;;;;5053041;28;20049;-81
2022/06/18 02:18:50;;;;;;;11.23;6.25;;;18.40;99.90;;;;;;5040975;28;20048;-80
2022/06/18 02:21:20;;;;;;;12.05;6.20;;;18.40;99.90;;;;;;5048785;28;20063;-80
2022/06/18 02:23:46;;;;;;;10.13;7.00;;;18.40;99.90;;;;;;5043928;28;20052;-81
2022/06/18 02:26:12;;;;;;;10.88;6.72;;;18.70;99.90;;;;;;5042743;28;20760;-80
2022/06/18 02:28:43;;;;;;;10.95;6.93;;;18.30;99.90;;;;;;5060423;28;20038;-80
2022/06/18 02:31:19;;;;;;;9.55;6.85;;;18.30;99.90;;;;;;5060894;28;20048;-80
2022/06/18 02:33:56;;;;;;;10.27;7.25;;;18.30;99.90;;;;;;5046017;28;20052;-80
2022/06/18 02:36:33;;;;;;;12.65;7.68;;;18.30;99.90;;;;;;5039957;28;20063;-81
2022/06/18 02:39:25;;;;;;;10.88;6.95;;;18.40;99.90;;;;;;5059628;28;20052;-80
2022/06/18 02:42:12;;;;;;;10.25;6.97;;;18.30;99.90;;;;;;5053333;28;20063;-81
2022/06/18 02:44:39;;;;;;;10.55;7.93;;;18.30;99.90;;;;;;5037864;28;20047;-81
2022/06/18 02:47:08;;;;;;;9.68;7.68;;;18.30;99.90;;;;;;5047913;28;20064;-81
2022/06/18 02:49:39;;;;;;;11.77;8.63;;;18.30;99.90;;;;;;5036084;28;20045;-82
2022/06/18 02:52:06;;;;;;;10.30;8.43;;;18.20;99.90;;;;;;5044623;28;20049;-81
2022/06/18 02:54:33;;;;;;;12.40;7.75;;;18.20;99.90;;;;;;5045319;28;20048;-80
2022/06/18 02:57:03;;;;;;;11.57;8.20;;;18.20;99.90;;;;;;5041170;28;20033;-81
2022/06/18 02:59:29;;;;;;;10.95;7.82;;;18.00;99.90;;;;;;5052277;28;20079;-81
2022/06/18 03:01:58;;;;;;;9.55;7.13;;;18.20;99.90;;;;;;5055522;28;20154;-81
2022/06/18 03:04:24;;;;;;;11.38;7.82;;;18.10;99.90;;;;;;5052859;28;20108;-80
2022/06/18 03:06:50;;;;;;;11.10;7.28;;;18.10;99.90;;;;;;5060854;28;20064;-81
2022/06/18 03:09:16;;;;;;;10.50;8.70;;;18.10;99.90;;;;;;5043920;28;20056;-81
2022/06/18 03:14:26;;;;;;;10.77;8.50;;;18.10;99.90;;;;;;5039705;28;20106;-81
2022/06/18 03:16:52;;;;;;;12.73;9.20;;;18.00;99.90;;;;;;5037929;28;20048;-81
2022/06/18 03:19:52;;;;;;;12.65;8.10;;;18.10;99.90;;;;;;5061326;28;20051;-81
2022/06/18 03:22:20;;;;;;;12.88;8.95;;;18.00;99.90;;;;;;5056319;28;20725;-81
2022/06/18 03:24:46;;;;;;;12.30;8.88;;;18.00;99.90;;;;;;5035663;28;20061;-81
2022/06/18 03:27:15;;;;;;;15.27;9.15;;;18.00;99.90;;;;;;5055466;28;20040;-80
2022/06/18 03:29:43;;;;;;;11.98;8.55;;;18.00;99.90;;;;;;5064104;28;20057;-81
2022/06/18 03:32:13;;;;;;;13.23;9.15;;;17.90;99.90;;;;;;5041496;28;20091;-81
2022/06/18 03:34:38;;;;;;;13.63;7.90;;;17.90;99.90;;;;;;5045084;28;20076;-81
2022/06/18 03:37:04;;;;;;;15.45;8.60;;;17.90;99.90;;;;;;5046862;28;20091;-80
2022/06/18 03:39:31;;;;;;;12.65;9.85;;;17.90;99.90;;;;;;5037741;28;20053;-80
2022/06/18 03:41:58;;;;;;;14.20;9.48;;;17.90;99.90;;;;;;5046795;28;20123;-81
2022/06/18 03:44:25;;;;;;;14.60;9.68;;;18.00;99.90;;;;;;5055705;28;20048;-81
2022/06/18 03:46:51;;;;;;;16.13;10.35;;;17.90;99.90;;;;;;5049453;28;20083;-82
2022/06/18 03:49:27;;;;;;;15.93;9.98;;;17.90;99.90;;;;;;5061984;28;20053;-81
2022/06/18 03:51:54;;;;;;;13.30;9.32;;;17.90;99.90;;;;;;5046776;28;20040;-82
2022/06/18 03:54:22;;;;;;;15.55;10.43;;;17.90;99.90;;;;;;5058117;28;20468;-81
2022/06/18 03:56:58;;;;;;;19.25;11.82;;;17.90;99.90;;;;;;5038198;28;20099;-82
2022/06/18 03:59:24;;;;;;;15.07;10.90;;;17.90;99.90;;;;;;5060789;28;20045;-82
2022/06/18 04:01:50;;;;;;;16.15;11.98;;;17.90;99.90;;;;;;5053956;28;20086;-81
2022/06/18 04:04:15;;;;;;;17.50;12.98;;;17.90;99.90;;;;;;5030699;28;20057;-82
2022/06/18 04:06:45;;;;;;;16.73;11.60;;;18.40;99.90;;;;;;5044327;28;20700;-81
2022/06/18 04:09:10;;;;;;;19.10;13.52;;;18.00;99.90;;;;;;5043805;28;20163;-81
2022/06/18 04:11:36;;;;;;;19.35;13.23;;;17.90;99.90;;;;;;5036027;28;20153;-80
2022/06/18 04:14:04;;;;;;;17.23;13.35;;;18.00;99.90;;;;;;5024286;28;20111;-81
2022/06/18 04:16:30;;;;;;;18.25;11.25;;;17.90;99.90;;;;;;5043967;28;20055;-81
2022/06/18 04:18:56;;;;;;;13.90;11.30;;;17.90;99.90;;;;;;5042297;28;20091;-81
2022/06/18 04:21:23;;;;;;;18.80;13.13;;;17.90;99.90;;;;;;5042009;28;20115;-80
2022/06/18 04:23:49;;;;;;;20.23;14.35;;;17.90;99.90;;;;;;5052969;28;20187;-81
2022/06/18 04:26:15;;;;;;;18.50;11.93;;;17.90;99.90;;;;;;5034140;28;20113;-81
2022/06/18 04:28:41;;;;;;;21.35;15.15;;;17.60;99.90;;;;;;5061705;28;20036;-80
2022/06/18 04:31:07;;;;;;;22.23;14.52;;;18.00;99.90;;;;;;5044225;28;20048;-81
2022/06/18 04:33:33;;;;;;;18.40;11.85;;;17.90;99.90;;;;;;5048403;28;20053;-81
2022/06/18 04:35:59;;;;;;;21.65;13.75;;;17.90;99.90;;;;;;5047125;28;20049;-80
2022/06/18 04:38:25;;;;;;;21.00;15.00;;;17.90;99.90;;;;;;5075464;28;20460;-80
2022/06/18 04:40:51;;;;;;;24.08;15.07;;;17.90;99.90;;;;;;5047413;28;20052;-81
2022/06/18 04:43:17;;;;;;;23.98;15.70;;;17.90;99.90;;;;;;5055362;28;20167;-81
2022/06/18 04:45:43;;;;;;;22.30;16.20;;;17.90;99.90;;;;;;5030511;28;20523;-80
2022/06/18 04:48:12;;;;;;;26.42;16.67;;;17.90;99.90;;;;;;5051700;28;20060;-80
2022/06/18 04:50:40;;;;;;;20.23;14.30;;;17.90;99.90;;;;;;5063777;28;20700;-81
2022/06/18 04:53:07;;;;;;;20.80;13.65;;;17.90;99.90;;;;;;5065816;28;20507;-81
2022/06/18 04:55:35;;;;;;;21.75;15.20;;;17.90;99.90;;;;;;5038489;28;20148;-81
2022/06/18 04:58:00;;;;;;;22.15;14.93;;;17.90;99.90;;;;;;5048001;28;20441;-79
2022/06/18 05:00:26;;;;;;;19.38;14.85;;;17.90;99.90;;;;;;5048088;28;20143;-81
2022/06/18 05:02:52;;;;;;;26.00;16.02;;;17.90;99.90;;;;;;5041896;28;20041;-80
2022/06/18 05:05:25;;;;;;;31.42;17.65;;;17.90;99.90;;;;;;5048047;28;20045;-77
2022/06/18 05:07:51;;;;;;;24.60;16.53;;;17.90;99.90;;;;;;5041911;28;20148;-83
2022/06/18 05:10:18;;;;;;;26.05;17.25;;;17.90;99.90;;;;;;5048547;28;20314;-82
2022/06/18 05:12:44;;;;;;;28.35;17.70;;;17.90;99.90;;;;;;5037536;28;20394;-81
2022/06/18 05:15:12;;;;;;;27.33;17.98;;;17.90;99.90;;;;;;5049238;28;20082;-81
2022/06/18 05:17:43;;;;;;;28.35;16.67;;;18.00;99.90;;;;;;5041478;28;20776;-81
2022/06/18 05:20:12;;;;;;;29.63;17.63;;;17.90;99.90;;;;;;5038990;28;20045;-81
2022/06/18 05:22:38;;;;;;;25.42;17.05;;;17.90;99.90;;;;;;5050835;28;20139;-82
2022/06/18 05:25:04;;;;;;;24.02;14.93;;;18.00;99.90;;;;;;5047749;28;20048;-81
2022/06/18 05:27:32;;;;;;;28.63;17.90;;;17.90;99.90;;;;;;5049967;28;20041;-82
2022/06/18 05:29:58;;;;;;;23.42;16.17;;;18.00;99.90;;;;;;5028827;28;20055;-83
2022/06/18 05:32:24;;;;;;;25.63;16.25;;;18.00;99.90;;;;;;5030121;28;20041;-82
2022/06/18 05:34:50;;;;;;;24.25;17.50;;;17.90;99.90;;;;;;5022203;28;20053;-83
2022/06/18 05:37:23;;;;;;;30.20;16.92;;;18.00;99.90;;;;;;5020224;28;20408;-82
2022/06/18 05:39:49;;;;;;;25.58;17.20;;;18.20;99.90;;;;;;5025833;28;20132;-82
2022/06/18 05:42:14;;;;;;;23.77;16.58;;;18.10;99.90;;;;;;5055186;28;20063;-82
2022/06/18 05:44:40;;;;;;;27.92;18.85;;;18.10;99.90;;;;;;5037301;28;20051;-83
2022/06/18 05:47:25;;;;;;;29.60;17.80;;;18.00;99.90;;;;;;5034425;28;20061;-82
2022/06/18 05:49:52;;;;;;;26.80;17.05;;;18.20;99.90;;;;;;5035357;28;20041;-83
2022/06/18 05:52:19;;;;;;;26.85;16.88;;;18.20;99.90;;;;;;5054891;28;20055;-82
2022/06/18 05:54:46;;;;;;;23.90;16.40;;;18.20;99.90;;;;;;5049484;28;20040;-81
2022/06/18 05:57:13;;;;;;;23.17;15.40;;;18.20;99.90;;;;;;5053292;28;20155;-81
2022/06/18 05:59:39;;;;;;;27.15;16.65;;;18.30;99.90;;;;;;5041366;28;20131;-82
2022/06/18 06:02:05;;;;;;;25.80;15.55;;;18.30;99.90;;;;;;5039156;28;20800;-81
2022/06/18 06:04:31;;;;;;;28.08;16.65;;;18.30;99.90;;;;;;5055269;28;20846;-82
2022/06/18 06:06:57;;;;;;;24.08;15.52;;;18.40;99.90;;;;;;5045364;28;20048;-81
2022/06/18 06:12:10;;;;;;;29.25;16.35;;;18.40;99.90;;;;;;5024007;28;20048;-82
2022/06/18 06:14:39;;;;;;;25.90;15.57;;;18.50;99.90;;;;;;5038623;28;20040;-83
2022/06/18 06:17:10;;;;;;;21.52;15.32;;;18.50;99.90;;;;;;5059485;28;20049;-81
2022/06/18 06:19:36;;;;;;;20.42;14.30;;;18.50;99.90;;;;;;5025771;28;20037;-82
2022/06/18 06:22:02;;;;;;;19.80;12.70;;;18.60;99.90;;;;;;5048321;28;20044;-81
2022/06/18 06:24:28;;;;;;;24.17;14.50;;;18.60;99.90;;;;;;5043508;28;20041;-82
2022/06/18 06:26:53;;;;;;;24.00;14.52;;;18.70;99.90;;;;;;5055687;28;20118;-81
2022/06/18 06:29:19;;;;;;;24.65;13.98;;;18.80;99.90;;;;;;5038334;28;20080;-82
2022/06/18 06:31:44;;;;;;;20.95;12.88;;;18.70;99.90;;;;;;5037641;28;20794;-81
2022/06/18 06:34:10;;;;;;;23.55;14.23;;;19.10;99.90;;;;;;5029211;28;20068;-82
2022/06/18 06:36:36;;;;;;;20.50;13.43;;;18.90;99.90;;;;;;5039411;28;20140;-81
2022/06/18 06:39:02;;;;;;;22.75;12.73;;;19.00;99.90;;;;;;5038829;28;20451;-81
2022/06/18 06:41:30;;;;;;;24.83;12.60;;;19.10;99.90;;;;;;5025099;28;20508;-79
2022/06/18 06:43:56;;;;;;;24.48;12.98;;;19.10;99.90;;;;;;5039023;28;20048;-79
2022/06/18 06:46:21;;;;;;;19.95;11.60;;;19.20;99.90;;;;;;5049121;28;20048;-79
2022/06/18 06:48:47;;;;;;;17.02;10.75;;;19.50;99.90;;;;;;5038290;28;20057;-78
2022/06/18 06:51:15;;;;;;;17.92;11.50;;;19.40;99.90;;;;;;5034360;28;20045;-78
2022/06/18 06:53:41;;;;;;;19.30;10.73;;;19.40;99.90;;;;;;5042226;28;20042;-81
2022/06/18 06:58:54;;;;;;;18.10;10.35;;;19.60;99.90;;;;;;5019848;28;20531;-83
2022/06/18 07:01:20;;;;;;;15.35;9.70;;;19.70;99.90;;;;;;5032752;28;20098;-79
2022/06/18 07:03:45;;;;;;;16.50;8.65;;;19.80;99.90;;;;;;5040150;28;20048;-80
2022/06/18 07:06:11;;;;;;;17.77;9.25;;;19.90;99.90;;;;;;5035506;28;20586;-75
2022/06/18 07:08:36;;;;;;;21.40;7.95;;;20.00;99.90;;;;;;5039814;28;20059;-75
2022/06/18 07:11:02;;;;;;;16.35;9.07;;;20.30;99.90;;;;;;5037657;28;20045;-81
2022/06/18 07:13:29;;;;;;;13.52;7.65;;;20.50;99.90;;;;;;5043878;28;20040;-82
2022/06/18 07:15:56;;;;;;;15.63;8.27;;;20.70;99.90;;;;;;5034642;28;20579;-81
2022/06/18 07:18:26;;;;;;;15.30;7.70;;;20.90;99.90;;;;;;5019402;28;20489;-81
2022/06/18 07:20:51;;;;;;;13.25;6.80;;;21.10;99.90;;;;;;5022409;28;20774;-81
2022/06/18 07:23:17;;;;;;;13.02;7.55;;;21.30;99.90;;;;;;5035160;28;20056;-81
2022/06/18 07:25:43;;;;;;;12.15;6.85;;;21.60;99.90;;;;;;5038916;28;20738;-81
2022/06/18 07:28:09;;;;;;;16.60;6.47;;;21.70;99.90;;;;;;5039472;28;20049;-81
2022/06/18 07:30:36;;;;;;;12.48;6.75;;;21.90;99.90;;;;;;5032785;28;20527;-81
2022/06/18 07:33:02;;;;;;;13.85;6.97;;;22.10;99.90;;;;;;5016706;28;20060;-82
2022/06/18 07:35:30;;;;;;;19.90;7.25;;;22.30;99.90;;;;;;5028720;28;20051;-81
2022/06/18 07:37:59;;;;;;;14.25;6.47;;;22.40;99.90;;;;;;5026611;28;20073;-82
2022/06/18 07:40:29;;;;;;;13.23;6.93;;;22.50;99.90;;;;;;5017333;28;20131;-81
2022/06/18 07:42:55;;;;;;;14.05;6.00;;;22.70;99.90;;;;;;5019936;28;20100;-81
2022/06/18 07:45:24;;;;;;;17.10;6.05;;;22.80;99.90;;;;;;5018995;28;20083;-81
2022/06/18 07:47:51;;;;;;;13.52;6.28;;;22.90;99.90;;;;;;5017156;28;20156;-81
2022/06/18 07:50:18;;;;;;;11.75;5.90;;;23.00;99.90;;;;;;5029341;28;20134;-81
2022/06/18 07:52:44;;;;;;;17.48;5.50;;;23.00;99.90;;;;;;5038255;28;20058;-81
2022/06/18 07:55:24;;;;;;;11.90;6.10;;;23.10;99.90;;;;;;5038472;28;20059;-81
2022/06/18 07:57:50;;;;;;;14.52;6.05;;;23.20;99.90;;;;;;5038289;28;20773;-81
2022/06/18 08:00:19;;;;;;;11.18;5.78;;;23.20;99.90;;;;;;5018429;28;20052;-81
2022/06/18 08:02:46;;;;;;;14.95;5.43;;;23.20;99.90;;;;;;5029498;28;20059;-86
2022/06/18 08:05:18;;;;;;;12.82;6.50;;;23.30;99.90;;;;;;5037475;28;20075;-82
2022/06/18 08:07:43;;;;;;;12.52;5.88;;;23.30;99.90;;;;;;5036508;28;20140;-75
2022/06/18 08:10:10;;;;;;;12.88;6.32;;;23.40;99.90;;;;;;5038100;28;20065;-76
2022/06/18 08:12:36;;;;;;;12.95;5.53;;;23.40;99.90;;;;;;5038897;28;20817;-86
2022/06/18 08:15:03;;;;;;;10.38;5.60;;;23.50;99.90;;;;;;5036455;28;20152;-89
2022/06/18 08:17:28;;;;;;;11.35;5.35;;;23.50;99.90;;;;;;5039071;28;20045;-88
2022/06/18 08:19:54;;;;;;;12.80;5.53;;;23.50;99.90;;;;;;5037455;28;20053;-87
2022/06/18 08:22:24;;;;;;;11.90;6.05;;;23.50;99.90;;;;;;5031659;28;20490;-80
2022/06/18 08:24:50;;;;;;;15.55;6.28;;;23.60;99.90;;;;;;5034862;28;20050;-81
2022/06/18 08:27:16;;;;;;;16.45;5.00;;;23.60;99.90;;;;;;5039670;28;20087;-86
2022/06/18 08:29:43;;;;;;;9.80;6.07;;;23.50;99.90;;;;;;5050614;28;20613;-85
2022/06/18 08:32:09;;;;;;;8.52;5.25;;;23.40;99.90;;;;;;5053374;28;20064;-87
2022/06/18 08:34:34;;;;;;;14.52;4.65;;;23.50;99.90;;;;;;5050945;28;20083;-87
2022/06/18 08:37:03;;;;;;;10.82;4.80;;;23.50;99.90;;;;;;5041739;28;20049;-86
2022/06/18 08:39:30;;;;;;;11.68;4.35;;;23.40;99.90;;;;;;5035898;28;20068;-86
2022/06/18 08:42:20;;;;;;;11.40;4.38;;;23.40;99.90;;;;;;5037422;28;20053;-87
2022/06/18 08:45:07;;;;;;;10.70;4.20;;;23.40;99.90;;;;;;5036543;28;20053;-86
2022/06/18 08:47:59;;;;;;;9.93;3.90;;;23.50;99.90;;;;;;5031059;28;20061;-87
2022/06/18 08:50:27;;;;;;;8.05;3.15;;;23.50;99.90;;;;;;5030153;28;20433;-86
2022/06/18 08:53:18;;;;;;;11.50;4.00;;;23.50;99.90;;;;;;5038402;28;20087;-86
2022/06/18 08:55:56;;;;;;;7.95;3.60;;;23.50;99.90;;;;;;5045107;28;20075;-86
2022/06/18 08:58:37;;;;;;;8.55;3.60;;;23.50;99.90;;;;;;5049415;28;20060;-88
2022/06/18 09:01:42;;;;;;;8.60;3.38;;;23.50;99.90;;;;;;5048165;28;20742;-87
2022/06/18 09:04:35;;;;;;;15.75;3.50;;;23.50;99.90;;;;;;5045989;28;20053;-88
2022/06/18 09:07:28;;;;;;;13.70;4.22;;;23.60;99.90;;;;;;5047718;28;20049;-89
2022/06/18 09:10:17;;;;;;;8.55;3.55;;;23.70;99.90;;;;;;5050957;28;20055;-87
2022/06/18 09:13:23;;;;;;;10.88;3.40;;;23.70;99.90;;;;;;5053346;28;20045;-87
2022/06/18 09:15:56;;;;;;;8.55;2.72;;;23.70;99.90;;;;;;5044034;28;20058;-85
2022/06/18 09:18:35;;;;;;;6.60;2.63;;;23.80;99.90;;;;;;5062331;28;20059;-87
2022/06/18 09:21:07;;;;;;;6.28;2.25;;;23.90;99.90;;;;;;5040331;28;20037;-88
2022/06/18 09:23:52;;;;;;;5.05;1.90;;;24.10;99.90;;;;;;5032573;28;20764;-88
2022/06/18 09:26:27;;;;;;;11.88;2.42;;;24.10;99.90;;;;;;5051917;28;20045;-88
2022/06/18 09:29:05;;;;;;;5.75;1.67;;;24.10;99.90;;;;;;5036492;28;20051;-82
2022/06/18 09:31:49;;;;;;;5.93;1.60;;;24.10;99.90;;;;;;5048162;28;20107;-83
2022/06/18 09:34:29;;;;;;;6.63;1.60;;;24.10;99.90;;;;;;5056436;28;20049;-85
2022/06/18 09:37:05;;;;;;;6.28;1.45;;;24.10;99.90;;;;;;5037320;28;20057;-86
2022/06/18 09:39:39;;;;;;;3.17;1.10;;;24.20;99.90;;;;;;5039610;28;20041;-86
2022/06/18 09:42:14;;;;;;;4.32;1.85;;;24.20;99.90;;;;;;5041477;28;20053;-86
2022/06/18 09:44:52;;;;;;;7.10;1.77;;;24.20;99.90;;;;;;5044242;28;20147;-87
2022/06/18 09:47:24;;;;;;;9.38;2.13;;;24.10;99.90;;;;;;5047771;28;20130;-87
2022/06/18 09:49:50;;;;;;;4.53;1.70;;;24.10;99.90;;;;;;5040101;28;20658;-85
2022/06/18 09:52:35;;;;;;;5.10;1.70;;;24.20;99.90;;;;;;5055159;28;20045;-81
2022/06/18 09:55:09;;;;;;;6.95;1.88;;;24.30;99.90;;;;;;5027448;28;20049;-83
2022/06/18 09:57:38;;;;;;;6.00;1.77;;;24.40;99.90;;;;;;5045444;28;20040;-83
2022/06/18 10:00:13;;;;;;;6.20;1.48;;;24.40;99.90;;;;;;5045939;28;20049;-82
2022/06/18 10:02:47;;;;;;;4.65;1.10;;;24.40;99.90;;;;;;5035790;28;20126;-84
2022/06/18 10:08:06;;;;;;;4.75;1.20;;;24.30;99.90;;;;;;5032830;28;19956;-82
2022/06/18 10:10:34;;;;;;;3.13;1.17;;;24.20;99.90;;;;;;5053816;28;20058;-83
2022/06/18 10:13:00;;;;;;;4.40;1.00;;;24.20;99.90;;;;;;5019751;28;20849;-83
2022/06/18 10:15:27;;;;;;;5.53;1.10;;;24.30;99.90;;;;;;5053506;28;20108;-83
2022/06/18 10:18:26;;;;;;;5.20;1.02;;;24.40;99.90;;;;;;5045071;28;20045;-84
2022/06/18 10:20:58;;;;;;;6.53;1.38;;;24.40;99.90;;;;;;5035740;28;20053;-82
2022/06/18 10:23:42;;;;;;;5.50;1.30;;;24.50;99.90;;;;;;5045061;28;20056;-82
2022/06/18 10:26:18;;;;;;;5.70;1.40;;;24.60;99.90;;;;;;5021505;28;20042;-82
2022/06/18 10:29:06;;;;;;;4.43;1.20;;;24.60;99.90;;;;;;5054462;28;20053;-82
2022/06/18 10:31:50;;;;;;;4.97;1.75;;;24.70;99.90;;;;;;5037827;28;20060;-82
2022/06/18 10:34:28;;;;;;;3.35;1.10;;;24.80;99.90;;;;;;5040849;28;20080;-83
2022/06/18 10:37:03;;;;;;;4.85;1.13;;;24.90;99.90;;;;;;5053775;28;20067;-82
2022/06/18 10:39:55;;;;;;;4.55;1.10;;;24.90;99.90;;;;;;5047487;28;20076;-85
2022/06/18 10:42:46;;;;;;;3.67;1.20;;;25.00;99.90;;;;;;5038810;28;20055;-82
2022/06/18 10:45:23;;;;;;;4.20;1.17;;;25.00;99.90;;;;;;5041296;28;20055;-85
2022/06/18 10:47:53;;;;;;;4.25;1.23;;;24.90;99.90;;;;;;5044267;28;20053;-82
2022/06/18 10:50:22;;;;;;;3.38;1.25;;;25.00;99.90;;;;;;5034436;28;20056;-87
2022/06/18 10:53:13;;;;;;;3.80;0.90;;;25.00;99.90;;;;;;5044486;28;20106;-85
2022/06/18 10:55:43;;;;;;;3.53;1.00;;;25.00;99.90;;;;;;5037723;28;20122;-85
2022/06/18 10:58:15;;;;;;;4.78;1.10;;;25.20;99.90;;;;;;5053356;28;20288;-86
2022/06/18 11:00:54;;;;;;;5.15;1.83;;;25.30;99.90;;;;;;5034305;28;20045;-87
2022/06/18 11:03:22;;;;;;;3.08;1.10;;;25.30;99.90;;;;;;5040479;28;20064;-87
2022/06/18 11:05:49;;;;;;;4.53;1.00;;;25.40;99.90;;;;;;5059525;28;20058;-87
2022/06/18 11:08:22;;;;;;;4.03;0.85;;;25.40;99.90;;;;;;5061149;28;20049;-87
2022/06/18 11:10:56;;;;;;;5.13;1.10;;;25.50;99.90;;;;;;5041504;28;20056;-85
2022/06/18 11:13:38;;;;;;;3.22;0.80;;;25.60;99.90;;;;;;5038156;28;20037;-83
2022/06/18 11:16:39;;;;;;;3.22;0.90;;;25.70;99.90;;;;;;5039564;28;20055;-82
2022/06/18 11:19:16;;;;;;;6.95;1.55;;;25.70;99.90;;;;;;5030208;28;20075;-83
2022/06/18 11:21:43;;;;;;;5.35;1.00;;;25.70;99.90;;;;;;5036627;28;20045;-83
2022/06/18 11:24:12;;;;;;;5.07;0.90;;;25.70;99.90;;;;;;5032073;28;20080;-83
2022/06/18 11:26:43;;;;;;;1.70;0.90;;;25.70;99.90;;;;;;5042178;28;20499;-84
2022/06/18 11:29:24;;;;;;;2.95;1.17;;;25.70;99.90;;;;;;5040433;28;20056;-84
2022/06/18 11:31:53;;;;;;;2.67;0.88;;;25.70;99.90;;;;;;5032327;28;20076;-85
2022/06/18 11:34:37;;;;;;;2.72;1.05;;;25.70;99.90;;;;;;5032385;28;20153;-82
2022/06/18 11:37:22;;;;;;;6.05;1.00;;;25.70;99.90;;;;;;5029668;28;20107;-82
2022/06/18 11:40:06;;;;;;;3.92;0.95;;;25.90;99.90;;;;;;5055684;28;20230;-84
2022/06/18 11:42:37;;;;;;;4.32;1.02;;;26.00;99.90;;;;;;5039405;28;20045;-84
2022/06/18 11:45:17;;;;;;;3.17;1.00;;;26.10;99.90;;;;;;5037989;28;20482;-85
2022/06/18 11:47:54;;;;;;;3.38;0.80;;;26.10;99.90;;;;;;5038204;28;20843;-85
2022/06/18 11:50:27;;;;;;;3.60;1.00;;;26.20;99.90;;;;;;5038680;28;20049;-82
2022/06/18 11:53:02;;;;;;;3.85;0.88;;;26.20;99.90;;;;;;5022290;28;20048;-82
2022/06/18 11:55:33;;;;;;;2.10;0.80;;;26.20;99.90;;;;;;5031402;28;20052;-81
2022/06/18 11:58:23;;;;;;;2.42;0.70;;;26.20;99.90;;;;;;5039224;28;20040;-84
2022/06/18 12:01:27;;;;;;;3.10;0.70;;;26.30;99.90;;;;;;5036050;28;20515;-84
2022/06/18 12:03:56;;;;;;;4.18;0.80;;;26.50;99.90;;;;;;5032798;28;20134;-81
2022/06/18 12:06:50;;;;;;;3.40;0.80;;;26.50;99.90;;;;;;5036202;28;20049;-80
2022/06/18 12:09:17;;;;;;;2.10;0.70;;;26.50;99.90;;;;;;5033776;28;20049;-84
2022/06/18 12:12:10;;;;;;;2.50;0.45;;;26.50;99.90;;;;;;5039311;28;20458;-85
2022/06/18 12:14:52;;;;;;;2.63;0.70;;;26.50;99.00;;;;;;5035989;28;20083;-83
2022/06/18 12:17:42;;;;;;;2.35;0.60;;;26.50;99.90;;;;;;5053710;28;20606;-82
2022/06/18 12:20:37;;;;;;;4.43;0.70;;;26.70;99.40;;;;;;5047960;28;20132;-83
2022/06/18 12:23:18;;;;;;;3.53;0.80;;;26.70;99.30;;;;;;5036971;28;20082;-83
2022/06/18 12:26:16;;;;;;;3.83;0.93;;;26.70;99.20;;;;;;5038446;28;20045;-82
2022/06/18 12:28:44;;;;;;;2.22;0.70;;;26.60;99.10;;;;;;5034788;28;20795;-82
2022/06/18 12:31:34;;;;;;;4.30;0.90;;;26.60;99.20;;;;;;5037650;28;20049;-83
2022/06/18 12:34:29;;;;;;;3.75;0.63;;;26.50;99.10;;;;;;5037738;28;20127;-84
2022/06/18 12:36:58;;;;;;;1.55;0.60;;;26.40;98.80;;;;;;5018902;28;20197;-82
2022/06/18 12:39:45;;;;;;;4.50;0.70;;;26.40;98.80;;;;;;5038282;28;20510;-83
2022/06/18 12:42:21;;;;;;;2.33;0.70;;;26.20;99.00;;;;;;5030346;28;20179;-83
2022/06/18 12:44:54;;;;;;;2.10;0.50;;;26.10;99.10;;;;;;5045652;28;20134;-83
2022/06/18 12:47:38;;;;;;;4.03;0.63;;;25.90;99.30;;;;;;5049590;28;20057;-84
2022/06/18 12:50:03;;;;;;;5.20;0.88;;;25.80;99.90;;;;;;5021791;28;20480;-80
2022/06/18 12:52:51;;;;;;;5.13;0.98;;;25.80;99.80;;;;;;5037119;28;20075;-80
2022/06/18 12:55:35;;;;;;;5.35;1.30;;;25.70;99.90;;;;;;5026039;28;20135;-80
2022/06/18 12:58:17;;;;;;;3.75;1.10;;;25.70;99.80;;;;;;5037307;28;20052;-81
2022/06/18 13:00:49;;;;;;;3.38;0.75;;;25.70;99.80;;;;;;5037352;28;20120;-80
2022/06/18 13:03:22;;;;;;;3.33;0.93;;;25.80;99.90;;;;;;5021543;28;20701;-80
2022/06/18 13:05:58;;;;;;;4.18;0.90;;;26.00;99.70;;;;;;5021476;28;20053;-80
2022/06/18 13:08:36;;;;;;;5.53;1.15;;;26.20;98.90;;;;;;5022569;28;20076;-80
2022/06/18 13:11:24;;;;;;;5.13;1.13;;;26.20;98.70;;;;;;5023829;28;20096;-80
2022/06/18 13:14:22;;;;;;;6.78;1.15;;;26.20;98.70;;;;;;5040727;28;20048;-80
2022/06/18 13:17:02;;;;;;;4.95;0.90;;;26.20;98.70;;;;;;5039590;28;20061;-80
2022/06/18 13:19:37;;;;;;;4.70;0.93;;;26.20;99.40;;;;;;5022526;28;20617;-80
2022/06/18 13:22:04;;;;;;;4.95;0.90;;;26.20;98.80;;;;;;5032746;28;20095;-81